^^
Meteo Knjazevac Station Historical Data
Daily Summary for June 11, 2021 Units:  English    Metric   Both
Daily Weekly Monthly Yearly Custom
  High: Low: Average:
Temperature: 34.5 °F 31.1 °F 32.7 °F
Dew Point: 34 °F 30.9 °F 32.4 °F
Humidity: 99% 98% 99%
Wind Speed: 2mph 0mph 0.8mph
Wind Gust: 4mph - -
Wind- - WSW
Pressure: 30.51 in 30.49 in -
Precipitation: 0.00 in    
Historical Graphs
 
 
Tabular Data for June 11, 2021
Time Temperature Dew Point Pressure Wind Wind Speed Wind Gust Humidity Rainfall Rate (Hourly) solar Conditions
00:00 34.5 °F 34 °F 30.51 in ENE 1 mph 3 mph 98% 0.00 in 0 W/m2
00:10 34.2 °F 33.7 °F 30.51 in SW 1 mph 2 mph 98% 0.00 in 0 W/m2
00:20 34 °F 33.5 °F 30.51 in West 1 mph 2 mph 98% 0.00 in 0 W/m2
00:30 34 °F 33.7 °F 30.51 in Calm   3 mph 99% 0.00 in 0 W/m2
00:40 33.8 °F 33.5 °F 30.51 in Calm   3 mph 99% 0.00 in 0 W/m2
00:50 33.6 °F 33.4 °F 30.51 in Calm   2 mph 99% 0.00 in 0 W/m2
01:00 33.4 °F 33.2 °F 30.51 in ESE 2 mph 4 mph 99% 0.00 in 0 W/m2
01:10 33.5 °F 33.2 °F 30.50 in Calm   4 mph 99% 0.00 in 0 W/m2
01:20 33.4 °F 33.2 °F 30.50 in WNW 2 mph 4 mph 99% 0.00 in 0 W/m2
01:30 33.1 °F 32.9 °F 30.50 in West 1 mph 3 mph 99% 0.00 in 0 W/m2
01:40 33.1 °F 32.8 °F 30.50 in Calm   2 mph 99% 0.00 in 0 W/m2
01:50 32.7 °F 32.5 °F 30.50 in Calm   2 mph 99% 0.00 in 0 W/m2
02:00 32.5 °F 32.3 °F 30.50 in Calm   2 mph 99% 0.00 in 0 W/m2
02:10 32.4 °F 32.1 °F 30.50 in East 1 mph 3 mph 99% 0.00 in 0 W/m2
02:20 32.2 °F 31.9 °F 30.50 in WNW 2 mph 3 mph 99% 0.00 in 0 W/m2
02:30 31.8 °F 31.6 °F 30.49 in NW 1 mph 3 mph 99% 0.00 in 0 W/m2
02:40 31.8 °F 31.6 °F 30.49 in Calm   3 mph 99% 0.00 in 0 W/m2
02:50 31.5 °F 31.2 °F 30.49 in Calm   2 mph 99% 0.00 in 0 W/m2
03:00 31.5 °F 31.2 °F 30.49 in NW 1 mph 2 mph 99% 0.00 in 0 W/m2
03:10 31.3 °F 31 °F 30.49 in West 2 mph 3 mph 99% 0.00 in 0 W/m2
03:20 31.1 °F 30.9 °F 30.49 in West 2 mph 3 mph 99% 0.00 in 0 W/m2
03:30 31.3 °F 31 °F 30.49 in Calm   3 mph 99% 0.00 in 0 W/m2
03:40 31.5 °F 31.2 °F 30.49 in Calm   2 mph 99% 0.00 in 0 W/m2
03:50 31.5 °F 31.2 °F 30.49 in West 1 mph 2 mph 99% 0.00 in 0 W/m2
Knjazevac, Serbia
Compliments of Weather Underground - 2 mb